Time;durP1;ratioP1;P1;durP2;ratioP2;P2;SDS_P1;SDS_P2;PMS_P1;PMS_P2;Temp;Humidity;BMP_temperature;BMP_pressure;BME280_temperature;BME280_humidity;BME280_pressure;Samples;Min_cycle;Max_cycle;Signal;HPM_P1;HPM_P2
2022/12/29 02:51:54;;;;;;;3.53;2.53;;;;;;;;;;6230427;22;20425;-79
2022/12/29 03:54:25;;;;;;;3.93;2.63;;;;;;;;;;6258697;22;20465;-82
2022/12/29 03:56:53;;;;;;;3.90;1.90;;;;;;;;;;6270969;22;20429;-82
2022/12/29 04:27:52;;;;;;;2.30;1.03;;;;;;;;;;6226244;22;20438;-86
2022/12/29 05:03:53;;;;;;;1.67;1.00;;;;;;;;;;6248467;22;20475;-84
2022/12/29 05:14:03;;;;;;;4.40;1.30;;;;;;;;;;6201001;22;20477;-84
2022/12/29 05:19:04;;;;;;;2.80;1.00;;;;;;;;;;6265429;22;20231;-84
2022/12/29 05:21:30;;;;;;;3.30;1.17;;;;;;;;;;6245596;22;20385;-83
2022/12/29 05:23:56;;;;;;;7.10;1.10;;;;;;;;;;6274457;22;20142;-81
2022/12/29 05:26:21;;;;;;;3.77;1.27;;;;;;;;;;6267958;22;20442;-83
2022/12/29 05:28:46;;;;;;;3.27;1.03;;;;;;;;;;6272156;22;20155;-84
2022/12/29 05:31:15;;;;;;;4.47;1.00;;;;;;;;;;6266533;22;20155;-80
2022/12/29 05:33:50;;;;;;;3.97;1.20;;;;;;;;;;6246889;23;20178;-77
2022/12/29 05:36:15;;;;;;;4.20;1.10;;;;;;;;;;6243675;23;20454;-77
2022/12/29 05:38:41;;;;;;;5.07;1.30;;;;;;;;;;6243512;23;20193;-76
2022/12/29 05:41:06;;;;;;;7.23;1.90;;;;;;;;;;6257647;23;20157;-81
2022/12/29 05:43:31;;;;;;;3.87;1.20;;;;;;;;;;6248874;23;20151;-82
2022/12/29 05:45:57;;;;;;;5.40;1.40;;;;;;;;;;6242874;22;20606;-81
2022/12/29 05:48:22;;;;;;;4.00;1.53;;;;;;;;;;6240867;22;20155;-81
2022/12/29 05:50:48;;;;;;;4.77;1.20;;;;;;;;;;6243891;23;20178;-82
2022/12/29 05:53:13;;;;;;;4.50;1.43;;;;;;;;;;6241174;23;20178;-79
2022/12/29 05:55:39;;;;;;;11.73;1.50;;;;;;;;;;6242370;22;20167;-80
2022/12/29 05:58:04;;;;;;;6.30;1.30;;;;;;;;;;6243548;23;20163;-82
2022/12/29 06:00:29;;;;;;;9.30;1.60;;;;;;;;;;6244411;22;20150;-83
2022/12/29 06:02:54;;;;;;;6.13;1.40;;;;;;;;;;6243214;23;20154;-81
2022/12/29 06:05:20;;;;;;;6.10;1.33;;;;;;;;;;6245361;23;20191;-80
2022/12/29 06:07:45;;;;;;;8.30;1.67;;;;;;;;;;6246376;23;20150;-83
2022/12/29 06:10:10;;;;;;;4.70;1.27;;;;;;;;;;6245445;23;20152;-83
2022/12/29 06:12:36;;;;;;;5.03;1.57;;;;;;;;;;6240814;23;20147;-81
2022/12/29 06:15:01;;;;;;;6.60;2.33;;;;;;;;;;6242057;23;20171;-77
2022/12/29 06:17:26;;;;;;;6.50;1.50;;;;;;;;;;6240548;23;20477;-82
2022/12/29 06:19:51;;;;;;;9.43;1.60;;;;;;;;;;6245180;23;20153;-82
2022/12/29 06:22:17;;;;;;;8.80;2.20;;;;;;;;;;6243781;23;20151;-83
2022/12/29 06:24:42;;;;;;;7.10;2.00;;;;;;;;;;6244927;23;20620;-82
2022/12/29 06:27:07;;;;;;;6.30;1.53;;;;;;;;;;6246834;23;20199;-84
2022/12/29 06:29:33;;;;;;;7.60;2.00;;;;;;;;;;6239133;23;20170;-83
2022/12/29 06:31:58;;;;;;;7.00;1.90;;;;;;;;;;6241416;22;20613;-82
2022/12/29 06:34:24;;;;;;;11.33;1.73;;;;;;;;;;6240929;23;20157;-81
2022/12/29 06:36:49;;;;;;;5.83;1.57;;;;;;;;;;6243140;22;20689;-80
2022/12/29 06:39:14;;;;;;;6.57;2.00;;;;;;;;;;6253115;23;20413;-82
2022/12/29 06:41:40;;;;;;;6.37;1.53;;;;;;;;;;6244999;23;20143;-78
2022/12/29 06:44:05;;;;;;;12.40;2.10;;;;;;;;;;6246173;23;20447;-82
2022/12/29 06:46:30;;;;;;;7.33;1.43;;;;;;;;;;6246586;23;20984;-80
2022/12/29 06:48:56;;;;;;;7.03;1.50;;;;;;;;;;6248827;23;20144;-80
2022/12/29 06:51:21;;;;;;;9.80;2.07;;;;;;;;;;6246980;23;20602;-81
2022/12/29 06:53:46;;;;;;;10.93;1.60;;;;;;;;;;6247049;22;20148;-82
2022/12/29 06:56:11;;;;;;;6.47;1.70;;;;;;;;;;6241346;23;20167;-78
2022/12/29 06:58:37;;;;;;;7.20;1.90;;;;;;;;;;6242825;23;20186;-79
2022/12/29 07:01:02;;;;;;;5.80;1.70;;;;;;;;;;6245946;23;20170;-78
2022/12/29 07:03:28;;;;;;;9.13;1.90;;;;;;;;;;6244773;23;20186;-81
2022/12/29 07:05:54;;;;;;;8.83;1.83;;;;;;;;;;6247328;23;20159;-77
2022/12/29 07:08:19;;;;;;;6.47;1.73;;;;;;;;;;6246765;23;20159;-77
2022/12/29 07:15:54;;;;;;;9.13;2.40;;;;;;;;;;6239252;22;20490;-83
2022/12/29 07:18:20;;;;;;;8.80;1.90;;;;;;;;;;6262074;23;20412;-81
2022/12/29 07:20:45;;;;;;;11.33;2.77;;;;;;;;;;6266707;22;20159;-78
2022/12/29 07:23:11;;;;;;;9.40;2.43;;;;;;;;;;6215413;22;20184;-82
2022/12/29 07:25:40;;;;;;;10.20;2.00;;;;;;;;;;6238323;22;20216;-80
2022/12/29 07:28:05;;;;;;;15.70;2.37;;;;;;;;;;6245569;22;20146;-83
2022/12/29 07:30:31;;;;;;;11.10;1.80;;;;;;;;;;6245804;23;20370;-82
2022/12/29 07:32:59;;;;;;;10.30;2.93;;;;;;;;;;6251648;22;20719;-82
2022/12/29 07:35:25;;;;;;;9.70;1.90;;;;;;;;;;6251574;22;20186;-82
2022/12/29 07:37:50;;;;;;;9.27;2.37;;;;;;;;;;6272938;22;20429;-82
2022/12/29 07:40:16;;;;;;;10.97;2.50;;;;;;;;;;6272941;22;20154;-81
2022/12/29 07:42:42;;;;;;;10.17;2.53;;;;;;;;;;6268382;22;20230;-83
2022/12/29 07:45:09;;;;;;;10.73;2.27;;;;;;;;;;6260279;22;20455;-81
2022/12/29 07:47:40;;;;;;;8.50;2.47;;;;;;;;;;6272466;22;20147;-80
2022/12/29 07:52:44;;;;;;;6.50;1.70;;;;;;;;;;6260079;22;20437;-81
2022/12/29 07:55:10;;;;;;;13.43;2.93;;;;;;;;;;6273475;22;20381;-80
2022/12/29 07:57:38;;;;;;;10.30;2.50;;;;;;;;;;6267841;22;20417;-78
2022/12/29 08:00:06;;;;;;;14.37;3.00;;;;;;;;;;6272254;22;20394;-80
2022/12/29 08:15:47;;;;;;;7.57;2.03;;;;;;;;;;6190778;22;20386;-83
2022/12/29 08:18:12;;;;;;;13.67;3.10;;;;;;;;;;6289771;22;20409;-83
2022/12/29 08:20:38;;;;;;;10.90;2.33;;;;;;;;;;6283762;22;20161;-78
2022/12/29 08:23:03;;;;;;;8.37;2.00;;;;;;;;;;6288888;22;20142;-77
2022/12/29 08:25:28;;;;;;;9.67;2.60;;;;;;;;;;6252629;23;20197;-78
2022/12/29 08:27:54;;;;;;;7.83;2.03;;;;;;;;;;6232105;23;20187;-81
2022/12/29 08:30:21;;;;;;;8.40;2.40;;;;;;;;;;6261911;23;20130;-81
2022/12/29 08:32:47;;;;;;;9.40;2.80;;;;;;;;;;6235336;23;20165;-82
2022/12/29 08:35:12;;;;;;;9.20;1.97;;;;;;;;;;6240447;22;20390;-81
2022/12/29 08:37:38;;;;;;;12.27;2.70;;;;;;;;;;6258765;23;20171;-80
2022/12/29 08:40:03;;;;;;;13.83;2.60;;;;;;;;;;6261541;23;20144;-81
2022/12/29 08:42:30;;;;;;;7.97;2.60;;;;;;;;;;6237230;23;20143;-78
2022/12/29 08:44:56;;;;;;;8.47;2.50;;;;;;;;;;6243621;22;20593;-80
2022/12/29 08:47:22;;;;;;;11.07;2.83;;;;;;;;;;6263264;23;20450;-82
2022/12/29 08:49:47;;;;;;;14.70;2.30;;;;;;;;;;6269291;22;20370;-77
2022/12/29 08:52:13;;;;;;;18.27;2.30;;;;;;;;;;6270418;22;20131;-81
2022/12/29 08:54:38;;;;;;;14.47;2.50;;;;;;;;;;6266451;23;20131;-79
2022/12/29 08:57:03;;;;;;;10.93;2.43;;;;;;;;;;6226821;23;20625;-78
2022/12/29 08:59:29;;;;;;;13.30;2.67;;;;;;;;;;6235667;23;20186;-83
2022/12/29 09:01:55;;;;;;;11.83;2.90;;;;;;;;;;6232203;23;20156;-83
2022/12/29 09:04:20;;;;;;;13.27;3.67;;;;;;;;;;6255536;23;20169;-82
2022/12/29 09:06:46;;;;;;;9.37;2.70;;;;;;;;;;6263847;22;20143;-77
2022/12/29 09:09:11;;;;;;;15.23;2.80;;;;;;;;;;6218415;23;20151;-76
2022/12/29 09:11:37;;;;;;;22.07;3.80;;;;;;;;;;6215502;23;20601;-78
2022/12/29 09:14:02;;;;;;;11.17;2.77;;;;;;;;;;6245748;23;20154;-78
2022/12/29 09:16:27;;;;;;;14.30;3.30;;;;;;;;;;6222490;23;20191;-77
2022/12/29 09:18:53;;;;;;;14.60;4.13;;;;;;;;;;6218762;23;20755;-77
2022/12/29 09:21:18;;;;;;;13.23;2.60;;;;;;;;;;6226569;23;20480;-82
2022/12/29 09:23:43;;;;;;;24.33;4.00;;;;;;;;;;6214579;23;20181;-76
2022/12/29 09:26:09;;;;;;;16.50;3.30;;;;;;;;;;6225194;22;20167;-74
2022/12/29 09:28:34;;;;;;;11.10;2.83;;;;;;;;;;6209605;23;20590;-75
2022/12/29 09:30:59;;;;;;;16.83;3.83;;;;;;;;;;6240538;23;20151;-75
2022/12/29 09:33:25;;;;;;;15.13;3.03;;;;;;;;;;6214660;23;20163;-76
2022/12/29 09:35:51;;;;;;;13.90;3.60;;;;;;;;;;6214639;23;20179;-75
2022/12/29 09:38:16;;;;;;;17.93;3.00;;;;;;;;;;6241041;23;20194;-75
2022/12/29 09:40:44;;;;;;;12.80;2.97;;;;;;;;;;6210861;23;20448;-76
2022/12/29 09:43:28;;;;;;;15.30;3.17;;;;;;;;;;6240294;23;20144;-75
2022/12/29 09:45:53;;;;;;;17.67;4.00;;;;;;;;;;6243392;22;20444;-77
2022/12/29 09:48:23;;;;;;;14.20;3.70;;;;;;;;;;6240523;23;20378;-75
2022/12/29 09:50:50;;;;;;;16.30;4.00;;;;;;;;;;6241720;23;20712;-75
2022/12/29 09:53:26;;;;;;;14.83;3.33;;;;;;;;;;6212944;23;20382;-75
2022/12/29 09:55:55;;;;;;;11.00;2.40;;;;;;;;;;6239244;22;20400;-75
2022/12/29 09:58:41;;;;;;;13.07;3.30;;;;;;;;;;6213457;23;20424;-75
2022/12/29 10:01:07;;;;;;;9.30;2.00;;;;;;;;;;6239556;23;20383;-75
2022/12/29 10:03:53;;;;;;;8.63;2.93;;;;;;;;;;6212258;23;20382;-75
2022/12/29 10:06:47;;;;;;;13.80;2.40;;;;;;;;;;6240822;22;20900;-75
2022/12/29 10:09:31;;;;;;;19.20;3.07;;;;;;;;;;6226777;23;20703;-75
2022/12/29 10:12:02;;;;;;;11.87;2.50;;;;;;;;;;6242552;23;20366;-76
2022/12/29 10:14:40;;;;;;;13.17;3.10;;;;;;;;;;6213968;23;20366;-75
2022/12/29 10:17:22;;;;;;;12.43;2.77;;;;;;;;;;6242817;22;20455;-75
2022/12/29 10:19:47;;;;;;;12.70;3.20;;;;;;;;;;6241301;23;20373;-76
2022/12/29 10:22:31;;;;;;;11.10;2.60;;;;;;;;;;6242435;23;20445;-75
2022/12/29 10:24:56;;;;;;;14.30;2.67;;;;;;;;;;6242295;22;20143;-74
2022/12/29 10:27:22;;;;;;;16.57;3.60;;;;;;;;;;6215687;23;20371;-74
2022/12/29 10:29:49;;;;;;;14.93;3.47;;;;;;;;;;6215810;23;20729;-76
2022/12/29 10:32:22;;;;;;;11.93;2.80;;;;;;;;;;6212691;23;20151;-76
2022/12/29 10:34:51;;;;;;;14.47;2.50;;;;;;;;;;6243266;22;20339;-77
2022/12/29 10:37:25;;;;;;;11.53;2.33;;;;;;;;;;6213718;23;20432;-76
2022/12/29 10:39:52;;;;;;;13.87;3.00;;;;;;;;;;6216741;23;20832;-76
2022/12/29 10:42:25;;;;;;;21.60;3.43;;;;;;;;;;6219020;22;20359;-76
2022/12/29 10:44:50;;;;;;;13.10;2.60;;;;;;;;;;6242991;22;20358;-75
2022/12/29 10:47:22;;;;;;;13.83;2.83;;;;;;;;;;6243220;23;20443;-77
2022/12/29 10:49:48;;;;;;;8.70;2.30;;;;;;;;;;6218048;23;20151;-77
2022/12/29 10:52:15;;;;;;;10.10;2.40;;;;;;;;;;6218238;23;20834;-75
2022/12/29 10:54:58;;;;;;;9.87;2.13;;;;;;;;;;6242282;23;20155;-76
2022/12/29 10:57:23;;;;;;;11.33;1.90;;;;;;;;;;6241007;23;20412;-76
2022/12/29 10:59:48;;;;;;;12.50;3.20;;;;;;;;;;6241689;23;20370;-76
2022/12/29 11:02:30;;;;;;;8.53;2.23;;;;;;;;;;6242061;23;20144;-75
2022/12/29 11:05:10;;;;;;;11.17;2.77;;;;;;;;;;6241100;22;20132;-74
2022/12/29 11:07:35;;;;;;;13.37;2.20;;;;;;;;;;6214641;23;20386;-75
2022/12/29 11:10:17;;;;;;;12.63;3.03;;;;;;;;;;6242210;23;20366;-74
2022/12/29 11:12:54;;;;;;;17.20;2.50;;;;;;;;;;6241837;23;20144;-76
2022/12/29 11:15:19;;;;;;;11.20;3.10;;;;;;;;;;6214097;23;20748;-75
2022/12/29 11:17:44;;;;;;;16.23;3.17;;;;;;;;;;6241220;23;20504;-76
2022/12/29 11:20:28;;;;;;;8.73;2.47;;;;;;;;;;6241835;23;20148;-76
2022/12/29 11:22:54;;;;;;;11.63;2.47;;;;;;;;;;6214607;23;20178;-75
2022/12/29 11:25:19;;;;;;;11.87;2.70;;;;;;;;;;6241525;22;20382;-75
2022/12/29 11:27:58;;;;;;;8.00;2.47;;;;;;;;;;6241115;23;20158;-75
2022/12/29 11:30:31;;;;;;;9.73;2.77;;;;;;;;;;6214761;23;20201;-75
2022/12/29 11:32:57;;;;;;;6.80;2.17;;;;;;;;;;6215296;23;20440;-75
2022/12/29 11:35:31;;;;;;;6.13;2.40;;;;;;;;;;6214006;23;20908;-76
2022/12/29 11:37:57;;;;;;;8.57;2.40;;;;;;;;;;6241603;23;20417;-74
2022/12/29 11:40:23;;;;;;;15.53;2.70;;;;;;;;;;6241227;23;20946;-75
2022/12/29 11:42:50;;;;;;;15.93;3.70;;;;;;;;;;6239018;23;20390;-76
2022/12/29 11:45:20;;;;;;;15.30;3.37;;;;;;;;;;6241148;22;20163;-75
2022/12/29 11:47:47;;;;;;;15.10;3.67;;;;;;;;;;6208895;23;20382;-75
2022/12/29 11:50:23;;;;;;;11.33;2.80;;;;;;;;;;6237621;23;20848;-75
2022/12/29 11:52:50;;;;;;;14.50;2.83;;;;;;;;;;6240493;23;20919;-76
2022/12/29 11:55:20;;;;;;;12.03;2.77;;;;;;;;;;6239681;22;20390;-75
2022/12/29 11:57:45;;;;;;;10.23;2.77;;;;;;;;;;6213077;23;20983;-75
2022/12/29 12:00:15;;;;;;;14.33;3.33;;;;;;;;;;6212248;23;20366;-74
2022/12/29 12:02:59;;;;;;;12.40;3.00;;;;;;;;;;6213141;23;20486;-74
2022/12/29 12:05:35;;;;;;;13.23;2.80;;;;;;;;;;6239171;22;20480;-75
2022/12/29 12:08:12;;;;;;;14.27;3.23;;;;;;;;;;6239010;23;20430;-76
2022/12/29 12:10:45;;;;;;;14.90;4.07;;;;;;;;;;6240940;23;20370;-75
2022/12/29 12:13:22;;;;;;;19.50;4.23;;;;;;;;;;6213151;23;20763;-74
2022/12/29 12:15:51;;;;;;;20.13;4.17;;;;;;;;;;6213853;23;20398;-76
2022/12/29 12:18:23;;;;;;;11.83;3.20;;;;;;;;;;6237256;23;20406;-75
2022/12/29 12:20:51;;;;;;;12.07;3.43;;;;;;;;;;6238576;23;20373;-75
2022/12/29 12:23:18;;;;;;;14.27;3.90;;;;;;;;;;6238214;23;20417;-74
2022/12/29 12:25:52;;;;;;;15.43;3.57;;;;;;;;;;6212313;23;20397;-74
2022/12/29 12:28:24;;;;;;;20.27;5.17;;;;;;;;;;6212543;23;20378;-75
2022/12/29 12:30:52;;;;;;;17.17;3.33;;;;;;;;;;6210991;23;20406;-75
2022/12/29 12:33:22;;;;;;;17.63;3.87;;;;;;;;;;6238553;23;20367;-74
2022/12/29 12:35:53;;;;;;;12.13;3.73;;;;;;;;;;6238214;22;20394;-75
2022/12/29 12:38:37;;;;;;;15.90;3.87;;;;;;;;;;6213211;23;20468;-75
2022/12/29 12:41:15;;;;;;;15.23;3.77;;;;;;;;;;6213871;23;20753;-75
2022/12/29 12:43:47;;;;;;;9.93;2.60;;;;;;;;;;6213289;23;20378;-76
2022/12/29 12:46:28;;;;;;;17.43;3.23;;;;;;;;;;6240082;22;20695;-75
2022/12/29 12:49:12;;;;;;;10.47;2.93;;;;;;;;;;6240448;23;20836;-75
2022/12/29 12:51:47;;;;;;;11.43;4.43;;;;;;;;;;6239175;23;20373;-75
2022/12/29 12:54:15;;;;;;;15.10;4.03;;;;;;;;;;6203725;23;20385;-75
2022/12/29 12:57:25;;;;;;;15.40;3.50;;;;;;;;;;6233712;22;20386;-78
2022/12/29 12:59:49;;;;;;;14.53;3.77;;;;;;;;;;6239300;23;20893;-76
2022/12/29 13:02:33;;;;;;;13.40;4.20;;;;;;;;;;6239873;23;20362;-78
2022/12/29 13:05:04;;;;;;;11.70;3.60;;;;;;;;;;6210676;22;20500;-78
2022/12/29 13:07:29;;;;;;;20.00;3.53;;;;;;;;;;6209958;23;20472;-77
2022/12/29 13:10:18;;;;;;;17.17;3.87;;;;;;;;;;6237339;23;20684;-78
2022/12/29 13:12:46;;;;;;;11.83;3.23;;;;;;;;;;6209889;23;20225;-78
2022/12/29 13:15:19;;;;;;;17.30;3.30;;;;;;;;;;6239908;22;20524;-82
2022/12/29 13:17:55;;;;;;;14.43;3.03;;;;;;;;;;6213510;23;20567;-77
2022/12/29 13:20:20;;;;;;;16.70;2.97;;;;;;;;;;6244048;23;20370;-75
2022/12/29 13:22:49;;;;;;;9.47;3.23;;;;;;;;;;6246681;23;20366;-79
2022/12/29 13:25:17;;;;;;;12.90;2.60;;;;;;;;;;6246178;22;20166;-82
2022/12/29 13:27:57;;;;;;;11.73;2.80;;;;;;;;;;6241752;23;20370;-78
2022/12/29 13:30:26;;;;;;;10.67;2.80;;;;;;;;;;6242318;23;20370;-77
2022/12/29 13:32:57;;;;;;;7.80;2.63;;;;;;;;;;6243049;23;20389;-77
2022/12/29 13:35:41;;;;;;;8.13;2.60;;;;;;;;;;6215756;23;20418;-78
2022/12/29 13:38:09;;;;;;;13.13;4.40;;;;;;;;;;6214081;23;20432;-77
2022/12/29 13:40:38;;;;;;;21.40;6.43;;;;;;;;;;6239439;23;20367;-77
2022/12/29 13:43:04;;;;;;;17.83;4.20;;;;;;;;;;6209375;23;20378;-77
2022/12/29 13:45:31;;;;;;;15.53;4.33;;;;;;;;;;6241565;22;20390;-77
2022/12/29 13:48:06;;;;;;;12.57;3.20;;;;;;;;;;6238990;23;20374;-79
2022/12/29 13:50:34;;;;;;;8.63;3.00;;;;;;;;;;6239306;23;20717;-76
2022/12/29 13:53:03;;;;;;;12.97;3.30;;;;;;;;;;6238826;23;20437;-82
2022/12/29 13:55:32;;;;;;;14.33;2.80;;;;;;;;;;6215168;23;20398;-77
2022/12/29 13:57:57;;;;;;;10.03;2.30;;;;;;;;;;6240872;23;20432;-76
2022/12/29 14:00:23;;;;;;;11.20;2.87;;;;;;;;;;6241548;23;20367;-76
2022/12/29 14:03:09;;;;;;;9.33;1.90;;;;;;;;;;6241895;23;20647;-80
2022/12/29 14:05:35;;;;;;;8.03;2.73;;;;;;;;;;6238391;22;20504;-75
2022/12/29 14:08:05;;;;;;;8.47;2.13;;;;;;;;;;6240656;23;20836;-75
2022/12/29 14:10:47;;;;;;;7.17;2.23;;;;;;;;;;6215226;23;20182;-75
2022/12/29 14:13:17;;;;;;;10.37;2.60;;;;;;;;;;6240952;23;20705;-75
2022/12/29 14:15:43;;;;;;;9.37;2.50;;;;;;;;;;6239536;22;20386;-75
2022/12/29 14:18:15;;;;;;;11.40;2.77;;;;;;;;;;6212779;23;21311;-74
2022/12/29 14:20:52;;;;;;;8.20;2.30;;;;;;;;;;6212801;23;20382;-75
2022/12/29 14:23:29;;;;;;;9.90;2.17;;;;;;;;;;6239243;23;20351;-75
2022/12/29 14:25:55;;;;;;;10.23;2.27;;;;;;;;;;6213197;23;20437;-75
2022/12/29 14:28:24;;;;;;;8.57;1.87;;;;;;;;;;6237693;23;20373;-75
2022/12/29 14:30:51;;;;;;;10.37;2.20;;;;;;;;;;6239111;23;20147;-75
2022/12/29 14:33:17;;;;;;;8.50;1.97;;;;;;;;;;6213118;23;20380;-76
2022/12/29 14:35:44;;;;;;;9.30;2.93;;;;;;;;;;6214038;23;20429;-75
2022/12/29 14:38:17;;;;;;;11.43;2.60;;;;;;;;;;6212551;23;20465;-75
2022/12/29 14:40:42;;;;;;;5.60;1.80;;;;;;;;;;6236398;23;20733;-75
2022/12/29 14:43:18;;;;;;;7.13;2.00;;;;;;;;;;6239517;23;20368;-75
2022/12/29 14:45:48;;;;;;;10.00;2.27;;;;;;;;;;6212872;23;20179;-75
2022/12/29 14:48:21;;;;;;;9.13;2.70;;;;;;;;;;6238178;23;20397;-75
2022/12/29 14:50:47;;;;;;;6.77;1.77;;;;;;;;;;6239335;23;20370;-74
2022/12/29 14:53:31;;;;;;;7.43;2.10;;;;;;;;;;6213237;23;20959;-75
2022/12/29 14:55:57;;;;;;;9.90;2.10;;;;;;;;;;6237268;22;20166;-78
2022/12/29 14:58:23;;;;;;;13.53;2.67;;;;;;;;;;6239768;23;20763;-77
2022/12/29 15:00:48;;;;;;;12.53;3.20;;;;;;;;;;6238508;23;20366;-75
2022/12/29 15:03:16;;;;;;;8.70;1.90;;;;;;;;;;6239624;23;20218;-76
2022/12/29 15:05:46;;;;;;;11.87;2.10;;;;;;;;;;6238869;22;20188;-75
2022/12/29 15:08:17;;;;;;;5.20;1.90;;;;;;;;;;6238971;23;20557;-75
2022/12/29 15:10:45;;;;;;;12.30;2.43;;;;;;;;;;6238797;23;20370;-76
2022/12/29 15:13:14;;;;;;;6.23;2.10;;;;;;;;;;6211880;23;20449;-75
2022/12/29 15:15:40;;;;;;;6.83;2.00;;;;;;;;;;6241465;22;20382;-75
2022/12/29 15:18:25;;;;;;;10.97;2.53;;;;;;;;;;6240494;23;20516;-76
2022/12/29 15:20:53;;;;;;;6.23;2.23;;;;;;;;;;6238741;23;20148;-75
2022/12/29 15:23:18;;;;;;;10.67;2.33;;;;;;;;;;6237086;23;20366;-75
2022/12/29 15:25:58;;;;;;;11.53;2.80;;;;;;;;;;6239353;22;20439;-75
2022/12/29 15:28:23;;;;;;;13.13;2.53;;;;;;;;;;6211531;23;20187;-75
2022/12/29 15:30:52;;;;;;;10.80;2.70;;;;;;;;;;6239199;23;20381;-75
2022/12/29 15:33:22;;;;;;;16.37;3.13;;;;;;;;;;6236818;23;20222;-75
2022/12/29 15:35:53;;;;;;;8.07;2.53;;;;;;;;;;6238942;22;20386;-76
2022/12/29 15:38:25;;;;;;;12.03;2.60;;;;;;;;;;6236806;23;20750;-76
2022/12/29 15:40:53;;;;;;;12.53;2.50;;;;;;;;;;6240492;23;20893;-75
2022/12/29 15:43:29;;;;;;;10.03;2.20;;;;;;;;;;6240905;23;20452;-75
2022/12/29 15:45:54;;;;;;;13.53;3.17;;;;;;;;;;6212908;23;20400;-75
2022/12/29 15:48:21;;;;;;;12.03;2.70;;;;;;;;;;6212914;23;20461;-75
2022/12/29 15:50:47;;;;;;;16.67;3.67;;;;;;;;;;6240908;23;20144;-75
2022/12/29 15:53:17;;;;;;;12.03;3.20;;;;;;;;;;6212932;23;20380;-78
2022/12/29 15:55:47;;;;;;;15.10;3.30;;;;;;;;;;6213171;23;20876;-77
2022/12/29 15:58:23;;;;;;;17.57;3.70;;;;;;;;;;6213193;23;20421;-77
2022/12/29 16:00:50;;;;;;;14.20;3.60;;;;;;;;;;6214252;23;20852;-77
2022/12/29 16:03:16;;;;;;;13.67;2.67;;;;;;;;;;6240363;23;20366;-77
2022/12/29 16:05:49;;;;;;;15.83;2.50;;;;;;;;;;6213325;23;20895;-76
2022/12/29 16:08:40;;;;;;;18.50;3.47;;;;;;;;;;6239629;23;20571;-74
2022/12/29 16:11:22;;;;;;;12.30;3.13;;;;;;;;;;6236500;23;20388;-75
2022/12/29 16:13:48;;;;;;;11.17;2.50;;;;;;;;;;6239850;23;20358;-73
2022/12/29 16:16:18;;;;;;;10.83;2.83;;;;;;;;;;6232167;22;20406;-74
2022/12/29 16:18:44;;;;;;;12.37;2.87;;;;;;;;;;6239636;23;20171;-75
2022/12/29 16:21:21;;;;;;;15.00;3.50;;;;;;;;;;6213136;23;20828;-74
2022/12/29 16:23:49;;;;;;;10.67;2.47;;;;;;;;;;6239903;23;20131;-80
2022/12/29 16:26:18;;;;;;;13.33;2.63;;;;;;;;;;6239199;22;20386;-76
2022/12/29 16:28:44;;;;;;;10.23;2.60;;;;;;;;;;6212398;23;20374;-75
2022/12/29 16:31:20;;;;;;;9.20;2.60;;;;;;;;;;6238655;23;20404;-75
2022/12/29 16:33:47;;;;;;;11.57;2.93;;;;;;;;;;6240190;23;20580;-75
2022/12/29 16:36:25;;;;;;;15.87;2.97;;;;;;;;;;6236532;22;20386;-76
2022/12/29 16:38:50;;;;;;;13.00;2.73;;;;;;;;;;6212426;23;20448;-74
2022/12/29 16:41:31;;;;;;;9.80;1.97;;;;;;;;;;6239559;23;20362;-74
2022/12/29 16:44:15;;;;;;;12.43;2.50;;;;;;;;;;6238620;23;20578;-75
2022/12/29 16:46:55;;;;;;;8.60;2.70;;;;;;;;;;6237002;22;20367;-74
2022/12/29 16:49:20;;;;;;;13.17;2.77;;;;;;;;;;6211261;23;20519;-75
2022/12/29 16:51:46;;;;;;;13.43;2.73;;;;;;;;;;6212769;23;20440;-75
2022/12/29 16:54:19;;;;;;;11.50;2.90;;;;;;;;;;6241645;23;20469;-74
2022/12/29 16:56:44;;;;;;;12.97;3.07;;;;;;;;;;6239519;22;20171;-76
2022/12/29 16:59:18;;;;;;;12.03;3.40;;;;;;;;;;6211319;23;20433;-75
2022/12/29 17:01:44;;;;;;;12.60;2.90;;;;;;;;;;6240830;23;20254;-74
2022/12/29 17:04:10;;;;;;;12.40;2.73;;;;;;;;;;6241715;23;20370;-75
2022/12/29 17:06:36;;;;;;;7.40;2.10;;;;;;;;;;6242076;22;20213;-75
2022/12/29 17:09:01;;;;;;;7.60;2.27;;;;;;;;;;6242559;23;20370;-75
2022/12/29 17:14:19;;;;;;;12.20;3.13;;;;;;;;;;6242651;23;20603;-74
2022/12/29 17:16:46;;;;;;;9.63;2.73;;;;;;;;;;6238725;22;20433;-75
2022/12/29 17:19:19;;;;;;;9.97;2.77;;;;;;;;;;6242007;23;20749;-75
2022/12/29 17:21:44;;;;;;;6.27;1.97;;;;;;;;;;6211631;23;20175;-74
2022/12/29 17:24:17;;;;;;;7.53;2.00;;;;;;;;;;6242364;23;20817;-75
2022/12/29 17:26:43;;;;;;;10.07;2.10;;;;;;;;;;6215548;23;20250;-74
2022/12/29 17:29:15;;;;;;;10.50;1.90;;;;;;;;;;6241690;23;20362;-74
2022/12/29 17:31:41;;;;;;;5.93;1.47;;;;;;;;;;6214391;23;20377;-75
2022/12/29 17:34:07;;;;;;;7.23;1.70;;;;;;;;;;6239949;23;20359;-75
2022/12/29 17:36:32;;;;;;;6.30;1.60;;;;;;;;;;6241084;22;20205;-74
2022/12/29 17:38:58;;;;;;;4.43;1.50;;;;;;;;;;6231906;22;20441;-71
2022/12/29 17:41:23;;;;;;;3.63;1.30;;;;;;;;;;6238421;23;20606;-71
2022/12/29 17:43:48;;;;;;;4.90;1.23;;;;;;;;;;6240606;23;20194;-71
2022/12/29 17:46:13;;;;;;;3.17;1.50;;;;;;;;;;6240666;23;20151;-70
2022/12/29 17:48:39;;;;;;;5.87;2.40;;;;;;;;;;6240495;22;20202;-70
2022/12/29 17:51:04;;;;;;;3.97;1.50;;;;;;;;;;6240415;23;20155;-71
2022/12/29 17:53:29;;;;;;;2.73;0.93;;;;;;;;;;6238295;22;20186;-70
2022/12/29 17:55:55;;;;;;;2.00;1.33;;;;;;;;;;6237263;23;20147;-71
2022/12/29 17:58:24;;;;;;;3.13;1.30;;;;;;;;;;6239975;22;20179;-72
2022/12/29 18:00:51;;;;;;;2.00;0.90;;;;;;;;;;6239906;22;20158;-71
2022/12/29 18:03:18;;;;;;;5.10;1.50;;;;;;;;;;6239856;22;20441;-71
2022/12/29 18:05:43;;;;;;;4.33;1.20;;;;;;;;;;6239492;23;20416;-69
2022/12/29 18:08:10;;;;;;;3.30;1.20;;;;;;;;;;6240340;22;20724;-70
2022/12/29 18:10:36;;;;;;;3.40;1.43;;;;;;;;;;6241286;22;20166;-69
2022/12/29 18:13:02;;;;;;;5.60;1.73;;;;;;;;;;6240491;23;20929;-70
2022/12/29 18:15:33;;;;;;;5.37;2.00;;;;;;;;;;6239265;22;20193;-71
2022/12/29 18:18:12;;;;;;;5.70;1.90;;;;;;;;;;6239710;22;20649;-71
2022/12/29 18:20:37;;;;;;;3.83;1.67;;;;;;;;;;6237003;23;20370;-70
2022/12/29 18:23:03;;;;;;;4.33;2.30;;;;;;;;;;6239958;22;20373;-71
2022/12/29 18:25:50;;;;;;;12.77;2.13;;;;;;;;;;6236374;23;20638;-71
2022/12/29 18:28:15;;;;;;;5.17;2.10;;;;;;;;;;6237602;22;20210;-71
2022/12/29 18:30:41;;;;;;;8.37;2.60;;;;;;;;;;6240215;22;20436;-70
2022/12/29 18:33:09;;;;;;;7.23;2.20;;;;;;;;;;6240071;22;20203;-70
2022/12/29 18:35:38;;;;;;;9.63;1.90;;;;;;;;;;6240678;22;20143;-71
2022/12/29 18:38:04;;;;;;;9.10;2.20;;;;;;;;;;6239550;22;20504;-70
2022/12/29 18:40:30;;;;;;;10.30;2.83;;;;;;;;;;6239433;23;20389;-70
2022/12/29 18:42:55;;;;;;;10.30;2.30;;;;;;;;;;6236138;23;20378;-71
2022/12/29 18:45:22;;;;;;;5.70;2.20;;;;;;;;;;6235466;23;20234;-72
2022/12/29 18:47:47;;;;;;;16.03;4.80;;;;;;;;;;6240835;22;20167;-71
2022/12/29 18:50:13;;;;;;;12.20;3.77;;;;;;;;;;6239419;23;20374;-71
2022/12/29 18:52:38;;;;;;;14.93;3.43;;;;;;;;;;6238920;23;20225;-71
2022/12/29 18:55:09;;;;;;;9.23;4.20;;;;;;;;;;6235972;23;21258;-70
2022/12/29 18:57:34;;;;;;;12.97;5.20;;;;;;;;;;6235846;22;20163;-71
2022/12/29 18:59:59;;;;;;;9.87;3.33;;;;;;;;;;6236765;22;20485;-70
2022/12/29 19:02:27;;;;;;;11.13;3.27;;;;;;;;;;6240750;23;20143;-70
2022/12/29 19:04:52;;;;;;;10.30;3.40;;;;;;;;;;6239575;23;20147;-72
2022/12/29 19:07:17;;;;;;;9.50;2.80;;;;;;;;;;6238558;22;20713;-71
2022/12/29 19:09:43;;;;;;;11.50;3.20;;;;;;;;;;6240019;23;20143;-71
2022/12/29 19:12:12;;;;;;;11.67;3.03;;;;;;;;;;6240620;23;20355;-70
2022/12/29 19:14:37;;;;;;;8.77;2.57;;;;;;;;;;6240621;22;20144;-70
2022/12/29 19:17:03;;;;;;;11.13;3.57;;;;;;;;;;6240456;23;20373;-71
2022/12/29 19:19:28;;;;;;;13.20;3.07;;;;;;;;;;6239442;22;20695;-71
2022/12/29 19:21:56;;;;;;;15.00;2.90;;;;;;;;;;6237683;23;20224;-70
2022/12/29 19:24:22;;;;;;;11.70;3.17;;;;;;;;;;6237804;23;20148;-71
2022/12/29 19:26:48;;;;;;;18.30;3.40;;;;;;;;;;6238992;22;20370;-70
2022/12/29 19:29:17;;;;;;;14.53;3.47;;;;;;;;;;6238366;22;20175;-70
2022/12/29 19:31:42;;;;;;;10.70;2.50;;;;;;;;;;6234967;23;20381;-70
2022/12/29 19:34:08;;;;;;;12.57;2.80;;;;;;;;;;6238366;23;20834;-70
2022/12/29 19:36:34;;;;;;;16.87;2.90;;;;;;;;;;6238468;23;20277;-71
2022/12/29 19:38:59;;;;;;;14.20;2.93;;;;;;;;;;6237506;22;20464;-70
2022/12/29 19:41:24;;;;;;;15.73;3.03;;;;;;;;;;6237932;22;20472;-70
2022/12/29 19:43:50;;;;;;;15.47;3.90;;;;;;;;;;6238282;22;20231;-70
2022/12/29 19:46:16;;;;;;;12.40;3.90;;;;;;;;;;6236531;22;20140;-71
2022/12/29 19:48:41;;;;;;;15.03;3.33;;;;;;;;;;6238910;22;20170;-71
2022/12/29 19:51:12;;;;;;;14.50;3.10;;;;;;;;;;6239328;23;20751;-70
2022/12/29 19:53:37;;;;;;;16.10;4.40;;;;;;;;;;6237158;23;20505;-71
2022/12/29 19:56:03;;;;;;;13.83;3.10;;;;;;;;;;6239192;22;20367;-70
2022/12/29 19:58:29;;;;;;;14.67;3.80;;;;;;;;;;6237156;22;20215;-71
2022/12/29 20:00:54;;;;;;;15.00;3.40;;;;;;;;;;6233349;23;20391;-71
2022/12/29 20:03:20;;;;;;;14.53;3.57;;;;;;;;;;6239988;22;20290;-71
2022/12/29 20:05:49;;;;;;;19.30;4.50;;;;;;;;;;6239154;23;20590;-72
2022/12/29 20:08:14;;;;;;;13.60;4.13;;;;;;;;;;6237583;22;20526;-70
2022/12/29 20:10:40;;;;;;;18.03;4.13;;;;;;;;;;6239376;23;20402;-71
2022/12/29 20:13:05;;;;;;;17.20;3.43;;;;;;;;;;6237297;23;20166;-71